Time;durP1;ratioP1;P1;durP2;ratioP2;P2;SDS_P1;SDS_P2;PMS_P1;PMS_P2;Temp;Humidity;BMP_temperature;BMP_pressure;BME280_temperature;BME280_humidity;BME280_pressure;Samples;Min_cycle;Max_cycle;Signal;HPM_P1;HPM_P2
2021/08/27 00:02:18;;;;;;;3.40;1.43;;;;;;;;;;5056994;28;20480;-71
2021/08/27 00:04:46;;;;;;;4.10;1.23;;;;;;;;;;5054889;28;20485;-70
2021/08/27 00:07:14;;;;;;;3.20;1.80;;;;;;;;;;5057047;28;20492;-71
2021/08/27 00:09:42;;;;;;;6.03;1.50;;;;;;;;;;5057194;28;20527;-70
2021/08/27 00:12:10;;;;;;;3.57;1.40;;;;;;;;;;5056702;28;20519;-70
2021/08/27 00:14:40;;;;;;;2.13;1.50;;;;;;;;;;5056679;28;20552;-72
2021/08/27 00:17:08;;;;;;;3.43;1.10;;;;;;;;;;5056524;28;20468;-72
2021/08/27 00:19:35;;;;;;;2.37;1.27;;;;;;;;;;5056118;28;20537;-71
2021/08/27 00:22:03;;;;;;;2.37;1.43;;;;;;;;;;5056960;28;20854;-71
2021/08/27 00:24:31;;;;;;;2.70;1.70;;;;;;;;;;5056015;28;20496;-71
2021/08/27 00:26:59;;;;;;;3.13;1.60;;;;;;;;;;5056789;28;20501;-72
2021/08/27 00:29:27;;;;;;;2.00;1.03;;;;;;;;;;5056629;28;20457;-71
2021/08/27 00:31:56;;;;;;;2.73;1.30;;;;;;;;;;5056642;28;20465;-71
2021/08/27 00:34:24;;;;;;;3.73;1.67;;;;;;;;;;5056453;28;20527;-71
2021/08/27 00:36:52;;;;;;;1.50;0.80;;;;;;;;;;5056252;28;20466;-71
2021/08/27 00:39:20;;;;;;;2.33;1.20;;;;;;;;;;5056317;28;20749;-72
2021/08/27 00:41:47;;;;;;;2.43;1.23;;;;;;;;;;5056205;28;20469;-71
2021/08/27 00:44:15;;;;;;;1.90;0.97;;;;;;;;;;5056318;28;20524;-71
2021/08/27 00:46:43;;;;;;;4.60;1.73;;;;;;;;;;5055475;28;20882;-72
2021/08/27 00:49:12;;;;;;;3.40;1.63;;;;;;;;;;5055624;28;20465;-71
2021/08/27 00:51:40;;;;;;;2.93;1.40;;;;;;;;;;5056398;28;20489;-72
2021/08/27 00:54:08;;;;;;;2.37;1.47;;;;;;;;;;5056006;28;20536;-71
2021/08/27 00:56:36;;;;;;;2.73;1.20;;;;;;;;;;5055798;28;20465;-71
2021/08/27 00:59:04;;;;;;;3.00;1.33;;;;;;;;;;5055807;28;20760;-71
2021/08/27 01:01:32;;;;;;;3.10;2.23;;;;;;;;;;5055590;28;20469;-71
2021/08/27 01:04:04;;;;;;;2.47;1.30;;;;;;;;;;5056062;28;20480;-71
2021/08/27 01:06:37;;;;;;;2.50;1.53;;;;;;;;;;5056068;28;20473;-71
2021/08/27 01:09:06;;;;;;;2.60;1.63;;;;;;;;;;5056234;28;20461;-71
2021/08/27 01:11:38;;;;;;;2.93;1.10;;;;;;;;;;5056305;28;20538;-72
2021/08/27 01:14:07;;;;;;;6.63;1.47;;;;;;;;;;5056214;28;20457;-72
2021/08/27 01:16:37;;;;;;;5.27;1.50;;;;;;;;;;5056362;28;20465;-71
2021/08/27 01:19:21;;;;;;;2.20;1.37;;;;;;;;;;5056251;28;20896;-71
2021/08/27 01:22:00;;;;;;;3.53;1.37;;;;;;;;;;5055924;28;20473;-71
2021/08/27 01:24:30;;;;;;;2.00;1.27;;;;;;;;;;5056514;28;20525;-70
2021/08/27 01:27:00;;;;;;;2.43;1.67;;;;;;;;;;5056391;28;20501;-71
2021/08/27 01:29:31;;;;;;;3.77;2.07;;;;;;;;;;5055725;28;20540;-71
2021/08/27 01:32:02;;;;;;;3.77;2.10;;;;;;;;;;5056598;28;20465;-71
2021/08/27 01:34:40;;;;;;;4.93;2.27;;;;;;;;;;5056100;28;20527;-71
2021/08/27 01:37:10;;;;;;;5.37;2.63;;;;;;;;;;5055488;28;20876;-71
2021/08/27 01:39:39;;;;;;;3.97;3.20;;;;;;;;;;5056505;28;20884;-71
2021/08/27 01:42:10;;;;;;;3.70;2.77;;;;;;;;;;5055801;28;20908;-71
2021/08/27 01:44:39;;;;;;;7.60;3.40;;;;;;;;;;5055539;28;20538;-71
2021/08/27 01:47:09;;;;;;;3.03;1.93;;;;;;;;;;5056796;28;20572;-71
2021/08/27 01:49:42;;;;;;;3.47;2.43;;;;;;;;;;5059312;28;20462;-71
2021/08/27 01:52:13;;;;;;;6.17;2.87;;;;;;;;;;5059438;28;20461;-71
2021/08/27 01:54:41;;;;;;;5.97;2.67;;;;;;;;;;5060596;28;20467;-72
2021/08/27 01:57:10;;;;;;;6.90;2.57;;;;;;;;;;5058974;28;20465;-71
2021/08/27 01:59:40;;;;;;;3.47;2.07;;;;;;;;;;5059602;28;20467;-71
2021/08/27 02:02:12;;;;;;;5.43;2.93;;;;;;;;;;5059809;28;20469;-71
2021/08/27 02:04:43;;;;;;;5.40;2.93;;;;;;;;;;5059158;28;20557;-71
2021/08/27 02:07:11;;;;;;;6.37;1.77;;;;;;;;;;5059349;28;20552;-71
2021/08/27 02:09:40;;;;;;;3.90;2.00;;;;;;;;;;5060721;28;20457;-72
2021/08/27 02:12:09;;;;;;;5.00;1.73;;;;;;;;;;5059511;28;20487;-71
2021/08/27 02:14:39;;;;;;;2.50;1.67;;;;;;;;;;5059804;28;20465;-71
2021/08/27 02:17:07;;;;;;;5.10;2.57;;;;;;;;;;5059214;28;20462;-71
2021/08/27 02:19:36;;;;;;;8.50;1.73;;;;;;;;;;5059259;28;20457;-71
2021/08/27 02:22:07;;;;;;;3.47;1.73;;;;;;;;;;5058980;28;20741;-70
2021/08/27 02:24:37;;;;;;;2.60;1.37;;;;;;;;;;5058338;28;20477;-71
2021/08/27 02:27:08;;;;;;;4.73;1.90;;;;;;;;;;5060133;28;20461;-71
2021/08/27 02:29:41;;;;;;;2.77;1.20;;;;;;;;;;5059607;28;20888;-72
2021/08/27 02:32:12;;;;;;;5.60;1.40;;;;;;;;;;5059132;28;20465;-72
2021/08/27 02:34:43;;;;;;;2.40;1.30;;;;;;;;;;5058713;28;20464;-72
2021/08/27 02:37:13;;;;;;;4.10;1.93;;;;;;;;;;5058870;28;20543;-71
2021/08/27 02:39:41;;;;;;;4.17;1.60;;;;;;;;;;5058436;28;20457;-71
2021/08/27 02:42:10;;;;;;;8.73;1.40;;;;;;;;;;5059108;28;20458;-71
2021/08/27 02:44:41;;;;;;;6.73;1.10;;;;;;;;;;5058376;28;20484;-71
2021/08/27 02:47:13;;;;;;;3.83;1.17;;;;;;;;;;5059301;28;20461;-71
2021/08/27 02:49:42;;;;;;;3.90;1.63;;;;;;;;;;5059507;28;20449;-70
2021/08/27 02:52:13;;;;;;;4.80;0.87;;;;;;;;;;5058713;28;20546;-71
2021/08/27 02:54:51;;;;;;;3.97;1.20;;;;;;;;;;5058899;28;20465;-71
2021/08/27 02:57:19;;;;;;;5.00;1.90;;;;;;;;;;5058350;28;20461;-71
2021/08/27 02:59:50;;;;;;;3.57;1.73;;;;;;;;;;5059013;28;20453;-70
2021/08/27 03:02:20;;;;;;;3.33;1.33;;;;;;;;;;5058200;28;20488;-72
2021/08/27 03:04:51;;;;;;;5.37;1.33;;;;;;;;;;5059392;28;20496;-71
2021/08/27 03:07:21;;;;;;;4.10;1.40;;;;;;;;;;5059939;28;20472;-70
2021/08/27 03:09:55;;;;;;;1.80;1.10;;;;;;;;;;5058949;28;20461;-71
2021/08/27 03:12:26;;;;;;;3.83;2.00;;;;;;;;;;5058354;28;20772;-71
2021/08/27 03:14:55;;;;;;;3.63;1.23;;;;;;;;;;5058056;28;20464;-72
2021/08/27 03:17:26;;;;;;;4.20;1.67;;;;;;;;;;5057758;28;20540;-72
2021/08/27 03:19:57;;;;;;;6.70;0.90;;;;;;;;;;5058747;28;20483;-71
2021/08/27 03:22:27;;;;;;;3.53;2.40;;;;;;;;;;5058200;28;20536;-72
2021/08/27 03:24:59;;;;;;;6.50;1.40;;;;;;;;;;5057756;28;20488;-72
2021/08/27 03:27:34;;;;;;;4.87;1.63;;;;;;;;;;5040266;28;20457;-71
2021/08/27 03:30:07;;;;;;;4.43;1.20;;;;;;;;;;5057056;28;20461;-72
2021/08/27 03:32:35;;;;;;;2.40;1.57;;;;;;;;;;5057371;28;20445;-72
2021/08/27 03:35:03;;;;;;;2.60;1.40;;;;;;;;;;5056625;28;20504;-71
2021/08/27 03:37:37;;;;;;;3.27;0.90;;;;;;;;;;5056779;28;20485;-71
2021/08/27 03:40:07;;;;;;;2.23;1.20;;;;;;;;;;5057311;28;20464;-72
2021/08/27 03:42:37;;;;;;;1.83;0.93;;;;;;;;;;5057787;28;20459;-72
2021/08/27 03:45:08;;;;;;;4.00;1.80;;;;;;;;;;5057984;28;20489;-73
2021/08/27 03:47:38;;;;;;;1.70;0.97;;;;;;;;;;5057398;28;20465;-72
2021/08/27 03:50:07;;;;;;;2.00;1.00;;;;;;;;;;5056190;28;20457;-71
2021/08/27 03:52:35;;;;;;;3.10;1.00;;;;;;;;;;5057643;28;20458;-71
2021/08/27 03:55:03;;;;;;;2.50;1.47;;;;;;;;;;5058509;28;20514;-71
2021/08/27 03:57:32;;;;;;;8.40;1.67;;;;;;;;;;5057017;28;20444;-71
2021/08/27 04:00:01;;;;;;;3.70;1.87;;;;;;;;;;5057664;28;20461;-71
2021/08/27 04:02:29;;;;;;;2.57;1.40;;;;;;;;;;5057651;28;20457;-71
2021/08/27 04:05:10;;;;;;;2.53;1.10;;;;;;;;;;5057612;28;20770;-71
2021/08/27 04:07:38;;;;;;;3.20;1.60;;;;;;;;;;5057187;28;20559;-71
2021/08/27 04:10:07;;;;;;;6.93;1.43;;;;;;;;;;5057083;28;20496;-70
2021/08/27 04:12:39;;;;;;;3.70;1.83;;;;;;;;;;5057293;28;20519;-70
2021/08/27 04:15:08;;;;;;;4.53;1.10;;;;;;;;;;5056823;28;20473;-71
2021/08/27 04:17:36;;;;;;;2.70;1.40;;;;;;;;;;5056263;28;20519;-71
2021/08/27 04:20:05;;;;;;;2.47;1.00;;;;;;;;;;5057140;28;20465;-71
2021/08/27 04:22:33;;;;;;;3.47;1.43;;;;;;;;;;5056260;28;20548;-71
2021/08/27 04:25:00;;;;;;;1.83;0.90;;;;;;;;;;5055625;28;20543;-72
2021/08/27 04:27:28;;;;;;;4.43;1.57;;;;;;;;;;5056786;28;20467;-72
2021/08/27 04:29:58;;;;;;;3.50;1.47;;;;;;;;;;5056708;28;20465;-71
2021/08/27 04:32:26;;;;;;;6.10;2.00;;;;;;;;;;5056318;28;20468;-71
2021/08/27 04:34:55;;;;;;;3.40;2.03;;;;;;;;;;5055640;28;20500;-71
2021/08/27 04:37:23;;;;;;;3.20;1.80;;;;;;;;;;5056167;28;20446;-70
2021/08/27 04:39:51;;;;;;;6.83;2.77;;;;;;;;;;5056779;28;20464;-70
2021/08/27 04:42:19;;;;;;;8.20;3.03;;;;;;;;;;5056868;28;20869;-71
2021/08/27 04:44:46;;;;;;;6.27;2.23;;;;;;;;;;5057039;28;20516;-70
2021/08/27 04:47:18;;;;;;;5.77;1.53;;;;;;;;;;5056174;28;20461;-71
2021/08/27 04:49:49;;;;;;;4.70;2.00;;;;;;;;;;5055954;28;20843;-71
2021/08/27 04:52:17;;;;;;;2.50;1.80;;;;;;;;;;5054892;28;20464;-70
2021/08/27 04:54:45;;;;;;;5.60;2.23;;;;;;;;;;5056022;28;20512;-70
2021/08/27 04:57:14;;;;;;;3.13;1.57;;;;;;;;;;5054652;28;20511;-71
2021/08/27 04:59:46;;;;;;;8.13;3.00;;;;;;;;;;5054846;28;20491;-70
2021/08/27 05:02:14;;;;;;;7.63;1.93;;;;;;;;;;5055141;28;20838;-71
2021/08/27 05:04:44;;;;;;;2.83;1.50;;;;;;;;;;5055243;28;20755;-71
2021/08/27 05:07:12;;;;;;;6.00;2.00;;;;;;;;;;5055486;28;20445;-70
2021/08/27 05:09:40;;;;;;;2.93;1.90;;;;;;;;;;5055151;28;20465;-71
2021/08/27 05:12:08;;;;;;;2.43;1.27;;;;;;;;;;5054741;28;20523;-71
2021/08/27 05:14:36;;;;;;;3.17;2.00;;;;;;;;;;5055313;28;20488;-71
2021/08/27 05:17:07;;;;;;;4.63;2.40;;;;;;;;;;5056217;28;20449;-71
2021/08/27 05:19:38;;;;;;;3.00;1.70;;;;;;;;;;5055492;28;20461;-71
2021/08/27 05:22:08;;;;;;;3.90;2.37;;;;;;;;;;5056462;28;20484;-71
2021/08/27 05:24:35;;;;;;;8.77;1.83;;;;;;;;;;5058977;28;20489;-70
2021/08/27 05:27:03;;;;;;;3.90;1.67;;;;;;;;;;5060049;28;20519;-70
2021/08/27 05:29:31;;;;;;;3.33;1.07;;;;;;;;;;5058271;28;20461;-71
2021/08/27 05:31:59;;;;;;;7.27;2.73;;;;;;;;;;5057755;28;20450;-72
2021/08/27 05:34:27;;;;;;;8.70;3.07;;;;;;;;;;5040763;28;20504;-72
2021/08/27 05:36:56;;;;;;;4.87;2.37;;;;;;;;;;5039007;28;20461;-73
2021/08/27 05:39:28;;;;;;;2.57;1.83;;;;;;;;;;5038734;28;20462;-72
2021/08/27 05:41:57;;;;;;;3.13;1.57;;;;;;;;;;5038606;28;20451;-72
2021/08/27 05:44:25;;;;;;;3.93;1.70;;;;;;;;;;5038332;28;20470;-72
2021/08/27 05:46:57;;;;;;;5.27;2.43;;;;;;;;;;5048848;28;20469;-72
2021/08/27 05:49:26;;;;;;;5.73;2.30;;;;;;;;;;5058843;28;20500;-72
2021/08/27 05:51:54;;;;;;;7.07;2.37;;;;;;;;;;5058022;28;20454;-73
2021/08/27 05:54:22;;;;;;;4.50;2.03;;;;;;;;;;5057643;28;20722;-72
2021/08/27 05:56:52;;;;;;;3.60;2.03;;;;;;;;;;5058344;28;20453;-72
2021/08/27 05:59:21;;;;;;;3.13;1.80;;;;;;;;;;5063296;28;20456;-71
2021/08/27 06:01:51;;;;;;;8.53;2.90;;;;;;;;;;5078906;28;20837;-70
2021/08/27 06:04:19;;;;;;;4.70;2.87;;;;;;;;;;5078724;28;20495;-71
2021/08/27 06:06:53;;;;;;;7.97;1.80;;;;;;;;;;5078179;28;20951;-72
2021/08/27 06:09:22;;;;;;;4.30;2.73;;;;;;;;;;5078052;28;20495;-71
2021/08/27 06:11:51;;;;;;;5.97;1.90;;;;;;;;;;5077805;28;20452;-72
2021/08/27 06:14:19;;;;;;;5.00;3.60;;;;;;;;;;5076725;28;20456;-73
2021/08/27 06:16:48;;;;;;;9.63;1.63;;;;;;;;;;5062800;28;20469;-72
2021/08/27 06:19:22;;;;;;;4.83;1.90;;;;;;;;;;5057699;28;20457;-73
2021/08/27 06:21:50;;;;;;;7.23;2.13;;;;;;;;;;5058329;28;20563;-72
2021/08/27 06:24:18;;;;;;;6.13;3.17;;;;;;;;;;5053938;28;20465;-71
2021/08/27 06:26:46;;;;;;;6.20;1.97;;;;;;;;;;5042973;28;20484;-72
2021/08/27 06:29:16;;;;;;;4.00;2.20;;;;;;;;;;5058001;28;20815;-72
2021/08/27 06:31:46;;;;;;;3.60;2.03;;;;;;;;;;5057088;28;20708;-73
2021/08/27 06:34:15;;;;;;;4.10;2.17;;;;;;;;;;5055229;28;20531;-72
2021/08/27 06:36:43;;;;;;;5.53;2.37;;;;;;;;;;5057589;28;20572;-72
2021/08/27 06:39:11;;;;;;;3.90;1.57;;;;;;;;;;5057491;28;20457;-72
2021/08/27 06:41:39;;;;;;;7.27;2.23;;;;;;;;;;5056359;28;20446;-72
2021/08/27 06:44:10;;;;;;;4.77;2.27;;;;;;;;;;5056341;28;20936;-72
2021/08/27 06:46:39;;;;;;;3.07;1.40;;;;;;;;;;5057595;28;20500;-74
2021/08/27 06:49:07;;;;;;;3.87;2.07;;;;;;;;;;5057264;28;20948;-72
2021/08/27 06:51:35;;;;;;;7.07;2.07;;;;;;;;;;5056571;28;20936;-72
2021/08/27 06:54:03;;;;;;;5.10;2.23;;;;;;;;;;5055877;28;20463;-72
2021/08/27 06:56:34;;;;;;;3.90;1.90;;;;;;;;;;5057914;28;20720;-73
2021/08/27 06:59:05;;;;;;;1.70;1.27;;;;;;;;;;5058385;28;20519;-73
2021/08/27 07:01:33;;;;;;;3.63;1.80;;;;;;;;;;5056483;28;20461;-73
2021/08/27 07:04:02;;;;;;;4.67;2.80;;;;;;;;;;5057096;28;20453;-73
2021/08/27 07:06:30;;;;;;;4.47;3.23;;;;;;;;;;5055141;28;20481;-73
2021/08/27 07:09:02;;;;;;;3.90;1.90;;;;;;;;;;5057142;28;20870;-72
2021/08/27 07:11:31;;;;;;;4.30;1.73;;;;;;;;;;5057796;28;20873;-73
2021/08/27 07:14:04;;;;;;;5.43;3.13;;;;;;;;;;5057471;28;20457;-72
2021/08/27 07:16:33;;;;;;;7.97;4.60;;;;;;;;;;5057556;28;20919;-72
2021/08/27 07:19:07;;;;;;;3.57;2.50;;;;;;;;;;5056272;28;20512;-73
2021/08/27 07:21:39;;;;;;;3.10;2.03;;;;;;;;;;5056763;28;20526;-73
2021/08/27 07:24:07;;;;;;;2.70;1.53;;;;;;;;;;5057103;28;20461;-73
2021/08/27 07:26:36;;;;;;;5.83;2.50;;;;;;;;;;5057488;28;20536;-72
2021/08/27 07:29:04;;;;;;;3.00;1.70;;;;;;;;;;5056653;28;20460;-72
2021/08/27 07:31:32;;;;;;;4.30;1.90;;;;;;;;;;5056079;28;20463;-73
2021/08/27 07:34:04;;;;;;;5.00;1.63;;;;;;;;;;5055437;28;20465;-73
2021/08/27 07:36:35;;;;;;;3.20;2.00;;;;;;;;;;5055921;28;20749;-72
2021/08/27 07:39:03;;;;;;;3.57;1.67;;;;;;;;;;5056745;28;20885;-73
2021/08/27 07:41:34;;;;;;;3.60;1.77;;;;;;;;;;5055429;28;20468;-72
2021/08/27 07:44:02;;;;;;;3.20;1.70;;;;;;;;;;5055211;28;20457;-70
2021/08/27 07:46:34;;;;;;;3.40;2.40;;;;;;;;;;5055522;28;20816;-70
2021/08/27 07:49:06;;;;;;;2.50;1.33;;;;;;;;;;5056733;28;20557;-71
2021/08/27 07:51:58;;;;;;;2.83;1.53;;;;;;;;;;5001227;28;20472;-71
2021/08/27 07:54:46;;;;;;;4.30;2.13;;;;;;;;;;5037123;28;20470;-70
2021/08/27 07:57:18;;;;;;;4.37;2.07;;;;;;;;;;5056291;28;20466;-71
2021/08/27 07:59:46;;;;;;;3.87;1.80;;;;;;;;;;5056086;28;20815;-71
2021/08/27 08:02:14;;;;;;;3.17;1.60;;;;;;;;;;5055831;28;20555;-71
2021/08/27 08:04:42;;;;;;;3.13;2.20;;;;;;;;;;5055284;28;20464;-71
2021/08/27 08:07:12;;;;;;;2.30;1.83;;;;;;;;;;5055451;28;20492;-71
2021/08/27 08:09:40;;;;;;;3.07;1.73;;;;;;;;;;5055235;28;20464;-71
2021/08/27 08:12:08;;;;;;;3.83;2.67;;;;;;;;;;5055228;28;20480;-71
2021/08/27 08:14:36;;;;;;;5.53;2.67;;;;;;;;;;5054824;28;20468;-72
2021/08/27 08:17:06;;;;;;;1.70;1.30;;;;;;;;;;5056174;28;20871;-73
2021/08/27 08:19:35;;;;;;;2.83;1.43;;;;;;;;;;5056404;28;20784;-72
2021/08/27 08:22:05;;;;;;;3.10;1.93;;;;;;;;;;5056101;28;20461;-72
2021/08/27 08:24:37;;;;;;;8.63;2.17;;;;;;;;;;5035150;28;20451;-72
2021/08/27 08:27:06;;;;;;;2.40;1.70;;;;;;;;;;5035747;28;20955;-73
2021/08/27 08:29:37;;;;;;;3.90;3.50;;;;;;;;;;5035699;28;20503;-71
2021/08/27 08:32:06;;;;;;;3.23;1.23;;;;;;;;;;5043125;28;20468;-72
2021/08/27 08:34:38;;;;;;;2.00;1.30;;;;;;;;;;5055482;28;20453;-72
2021/08/27 08:37:07;;;;;;;3.70;2.43;;;;;;;;;;5054510;28;20464;-72
2021/08/27 08:39:40;;;;;;;4.63;1.87;;;;;;;;;;5055050;28;20547;-72
2021/08/27 08:42:08;;;;;;;3.53;2.63;;;;;;;;;;5054822;28;20459;-71
2021/08/27 08:45:13;;;;;;;3.30;1.93;;;;;;;;;;5055682;28;20462;-73
2021/08/27 08:47:46;;;;;;;4.00;2.50;;;;;;;;;;5054105;28;20485;-70
2021/08/27 08:50:29;;;;;;;2.80;1.67;;;;;;;;;;5055434;28;21209;-72
2021/08/27 08:53:04;;;;;;;2.33;1.60;;;;;;;;;;5055918;28;20467;-72
2021/08/27 08:55:34;;;;;;;2.60;1.10;;;;;;;;;;5055574;28;20473;-72
2021/08/27 08:58:04;;;;;;;5.40;1.40;;;;;;;;;;5051359;28;20468;-71
2021/08/27 09:00:32;;;;;;;3.80;1.73;;;;;;;;;;5058636;28;20551;-70
2021/08/27 09:03:01;;;;;;;2.60;1.53;;;;;;;;;;5058893;28;20576;-71
2021/08/27 09:05:29;;;;;;;1.80;1.10;;;;;;;;;;5059279;28;20453;-72
2021/08/27 09:07:57;;;;;;;6.83;2.40;;;;;;;;;;5059509;28;20477;-71
2021/08/27 09:10:30;;;;;;;2.47;1.60;;;;;;;;;;5059416;28;20480;-71
2021/08/27 09:13:08;;;;;;;3.10;2.20;;;;;;;;;;5061088;28;20548;-71
2021/08/27 09:15:36;;;;;;;1.80;1.23;;;;;;;;;;5056636;28;20468;-72
2021/08/27 09:18:09;;;;;;;3.70;2.87;;;;;;;;;;5058037;28;20457;-72
2021/08/27 09:20:37;;;;;;;2.47;1.50;;;;;;;;;;5059698;28;20453;-72
2021/08/27 09:23:06;;;;;;;2.90;1.80;;;;;;;;;;5060210;28;20473;-72
2021/08/27 09:25:39;;;;;;;4.00;1.83;;;;;;;;;;5058431;28;20469;-72
2021/08/27 09:28:13;;;;;;;2.80;1.10;;;;;;;;;;5058295;28;20473;-72
2021/08/27 09:31:02;;;;;;;2.43;1.80;;;;;;;;;;5059160;28;20844;-72
2021/08/27 09:33:36;;;;;;;2.73;1.57;;;;;;;;;;5038734;28;20461;-71
2021/08/27 09:36:07;;;;;;;3.40;2.00;;;;;;;;;;5039850;28;20493;-71
2021/08/27 09:38:50;;;;;;;2.80;1.47;;;;;;;;;;5038875;28;21031;-71
2021/08/27 09:41:25;;;;;;;5.97;1.70;;;;;;;;;;5040595;28;20465;-71
2021/08/27 09:44:00;;;;;;;2.50;2.07;;;;;;;;;;5047732;28;20472;-71
2021/08/27 09:46:36;;;;;;;1.80;1.17;;;;;;;;;;5058829;28;20480;-71
2021/08/27 09:49:05;;;;;;;2.67;2.20;;;;;;;;;;5059092;28;20469;-73
2021/08/27 09:51:53;;;;;;;2.70;2.10;;;;;;;;;;5058035;28;20450;-72
2021/08/27 09:54:34;;;;;;;2.40;2.00;;;;;;;;;;5053632;28;20814;-73
2021/08/27 09:57:05;;;;;;;4.10;2.53;;;;;;;;;;5057269;28;20548;-73
2021/08/27 09:59:36;;;;;;;1.80;1.20;;;;;;;;;;5058071;28;20476;-72
2021/08/27 10:02:09;;;;;;;3.50;1.67;;;;;;;;;;5058330;28;20438;-74
2021/08/27 10:04:37;;;;;;;2.20;1.30;;;;;;;;;;5057204;28;20468;-72
2021/08/27 10:07:15;;;;;;;3.83;2.27;;;;;;;;;;5057371;28;20480;-73
2021/08/27 10:09:49;;;;;;;4.97;3.30;;;;;;;;;;5054691;28;20548;-71
2021/08/27 10:12:21;;;;;;;3.73;2.00;;;;;;;;;;5057756;28;20534;-73
2021/08/27 10:14:52;;;;;;;3.10;1.70;;;;;;;;;;5057680;28;20465;-72
2021/08/27 10:17:22;;;;;;;5.20;1.97;;;;;;;;;;5059756;28;20587;-70
2021/08/27 10:20:10;;;;;;;4.20;2.40;;;;;;;;;;5058999;28;20527;-72
2021/08/27 10:22:40;;;;;;;2.20;1.50;;;;;;;;;;5056870;28;20870;-72
2021/08/27 10:28:18;;;;;;;4.30;2.90;;;;;;;;;;5067707;28;20791;-72
2021/08/27 10:30:55;;;;;;;4.23;1.93;;;;;;;;;;5048846;28;20470;-71
2021/08/27 10:33:38;;;;;;;3.03;1.40;;;;;;;;;;5058122;28;20456;-71
2021/08/27 10:36:07;;;;;;;3.30;2.17;;;;;;;;;;5039967;28;20461;-72
2021/08/27 10:38:47;;;;;;;3.10;1.63;;;;;;;;;;5057795;28;20450;-71
2021/08/27 10:41:16;;;;;;;3.23;2.27;;;;;;;;;;5057037;28;20461;-71
2021/08/27 10:43:55;;;;;;;1.40;0.90;;;;;;;;;;5056865;28;20453;-72
2021/08/27 10:46:25;;;;;;;2.27;1.60;;;;;;;;;;5058373;28;20491;-73
2021/08/27 10:48:54;;;;;;;1.90;1.40;;;;;;;;;;5057007;28;20475;-73
2021/08/27 10:51:32;;;;;;;2.37;1.80;;;;;;;;;;5057320;28;20905;-73
2021/08/27 10:54:55;;;;;;;;;;;;;;;;;;;;;
2021/08/27 10:57:24;;;;;;;4.63;1.93;;;;;;;;;;5056995;28;20466;-71
2021/08/27 11:00:00;;;;;;;2.67;1.40;;;;;;;;;;5057854;28;20489;-72
2021/08/27 11:02:52;;;;;;;1.80;1.03;;;;;;;;;;5056444;28;20556;-75
2021/08/27 11:05:39;;;;;;;2.90;2.10;;;;;;;;;;5056890;28;20458;-73
2021/08/27 11:08:08;;;;;;;3.33;1.70;;;;;;;;;;5056304;28;20496;-72
2021/08/27 11:10:40;;;;;;;2.03;1.47;;;;;;;;;;5056542;28;20453;-74
2021/08/27 11:13:11;;;;;;;4.07;2.57;;;;;;;;;;5055772;28;20458;-72
2021/08/27 11:15:46;;;;;;;4.30;2.40;;;;;;;;;;5057183;28;20454;-73
2021/08/27 11:18:35;;;;;;;2.93;1.00;;;;;;;;;;5058466;28;20476;-73
2021/08/27 11:21:28;;;;;;;3.33;1.20;;;;;;;;;;5053536;28;20521;-71
2021/08/27 11:24:10;;;;;;;1.80;1.07;;;;;;;;;;5054689;28;20850;-71
2021/08/27 11:26:42;;;;;;;7.47;1.70;;;;;;;;;;5054602;28;20493;-71
2021/08/27 11:29:28;;;;;;;2.67;1.30;;;;;;;;;;5055726;28;20457;-71
2021/08/27 11:31:59;;;;;;;1.77;1.03;;;;;;;;;;5055190;28;20560;-72
2021/08/27 11:34:53;;;;;;;3.17;1.70;;;;;;;;;;5054575;28;20453;-72
2021/08/27 11:37:22;;;;;;;2.77;1.20;;;;;;;;;;5053280;28;20552;-72
2021/08/27 11:39:54;;;;;;;2.43;0.87;;;;;;;;;;5053269;28;20463;-72
2021/08/27 11:42:22;;;;;;;4.90;1.57;;;;;;;;;;5055940;28;20805;-72
2021/08/27 11:45:03;;;;;;;3.73;1.93;;;;;;;;;;5056142;28;20551;-72
2021/08/27 11:47:43;;;;;;;3.53;1.20;;;;;;;;;;5056200;28;20568;-70
2021/08/27 11:50:15;;;;;;;4.83;2.03;;;;;;;;;;5054975;28;20433;-72
2021/08/27 11:52:46;;;;;;;3.50;1.53;;;;;;;;;;5049354;28;20455;-71
2021/08/27 11:55:26;;;;;;;2.13;1.20;;;;;;;;;;5038349;28;20813;-71
2021/08/27 12:00:56;;;;;;;2.30;1.43;;;;;;;;;;5009676;28;20446;-71
2021/08/27 12:03:31;;;;;;;2.70;1.70;;;;;;;;;;5036253;28;21065;-70
2021/08/27 12:06:01;;;;;;;1.97;1.50;;;;;;;;;;5034426;28;20457;-72
2021/08/27 12:08:37;;;;;;;5.00;2.30;;;;;;;;;;5043176;28;20576;-70
2021/08/27 12:11:11;;;;;;;1.90;1.30;;;;;;;;;;5055332;28;20718;-71
2021/08/27 12:13:55;;;;;;;2.80;2.00;;;;;;;;;;5052979;28;20458;-70
2021/08/27 12:16:26;;;;;;;1.77;1.13;;;;;;;;;;5054478;28;20610;-71
2021/08/27 12:18:56;;;;;;;3.13;1.20;;;;;;;;;;5055536;28;20766;-70
2021/08/27 12:21:28;;;;;;;3.53;1.60;;;;;;;;;;5054500;28;20453;-70
2021/08/27 12:24:02;;;;;;;2.13;1.50;;;;;;;;;;5054598;28;20450;-72
2021/08/27 12:26:33;;;;;;;2.83;1.70;;;;;;;;;;5055529;28;20453;-71
2021/08/27 12:29:16;;;;;;;3.93;2.50;;;;;;;;;;5056094;28;20458;-72
2021/08/27 12:31:47;;;;;;;1.70;0.70;;;;;;;;;;5054363;28;20465;-71
2021/08/27 12:34:24;;;;;;;2.53;1.13;;;;;;;;;;5054463;28;20457;-71
2021/08/27 12:37:00;;;;;;;2.57;1.70;;;;;;;;;;5055005;28;20548;-72
2021/08/27 12:39:31;;;;;;;2.20;1.47;;;;;;;;;;5054971;28;20469;-70
2021/08/27 12:42:20;;;;;;;2.00;1.20;;;;;;;;;;5054306;28;21145;-70
2021/08/27 12:44:59;;;;;;;6.07;2.40;;;;;;;;;;5055366;28;20465;-70
2021/08/27 12:47:38;;;;;;;2.00;1.30;;;;;;;;;;5054321;28;20543;-71
2021/08/27 12:50:11;;;;;;;5.00;2.53;;;;;;;;;;5054745;28;20493;-71
2021/08/27 12:52:43;;;;;;;2.03;1.30;;;;;;;;;;5053846;28;20466;-71
2021/08/27 12:55:24;;;;;;;3.17;1.83;;;;;;;;;;5054842;28;20450;-70
2021/08/27 12:57:52;;;;;;;2.80;2.30;;;;;;;;;;5054629;28;20461;-71
2021/08/27 13:00:26;;;;;;;2.50;1.10;;;;;;;;;;5054687;28;20453;-70
2021/08/27 13:02:55;;;;;;;2.30;1.30;;;;;;;;;;5055101;28;20465;-70
2021/08/27 13:05:43;;;;;;;1.97;1.03;;;;;;;;;;5057035;28;20456;-71
2021/08/27 13:08:21;;;;;;;4.40;2.03;;;;;;;;;;5052370;28;20523;-70
2021/08/27 13:11:09;;;;;;;2.90;1.10;;;;;;;;;;5052616;28;20449;-70
2021/08/27 13:13:45;;;;;;;3.13;1.27;;;;;;;;;;5051359;28;20756;-72
2021/08/27 13:16:21;;;;;;;2.00;1.23;;;;;;;;;;5052887;28;20469;-71
2021/08/27 13:18:54;;;;;;;2.27;1.03;;;;;;;;;;5052888;28;20453;-71
2021/08/27 13:21:22;;;;;;;1.90;0.80;;;;;;;;;;5051498;28;20526;-70
2021/08/27 13:26:58;;;;;;;1.80;0.90;;;;;;;;;;5150626;27;20374;-71
2021/08/27 13:29:27;;;;;;;2.87;1.77;;;;;;;;;;5133294;27;20445;-71
2021/08/27 13:31:58;;;;;;;3.27;2.33;;;;;;;;;;5130309;27;20560;-70
2021/08/27 13:34:28;;;;;;;1.57;0.97;;;;;;;;;;5132674;27;20442;-70
2021/08/27 13:36:59;;;;;;;3.93;2.30;;;;;;;;;;5124318;27;20454;-71
2021/08/27 13:39:30;;;;;;;1.47;0.80;;;;;;;;;;5111083;27;20980;-70
2021/08/27 13:42:09;;;;;;;2.47;1.57;;;;;;;;;;5111496;27;20458;-71
2021/08/27 13:44:39;;;;;;;1.80;1.13;;;;;;;;;;5112290;27;20516;-70
2021/08/27 13:47:07;;;;;;;2.90;2.10;;;;;;;;;;5112626;27;20473;-70
2021/08/27 13:49:34;;;;;;;2.70;1.00;;;;;;;;;;5112621;27;20516;-71
2021/08/27 13:52:19;;;;;;;;;;;;;;;;;;;;;
2021/08/27 13:54:54;;;;;;;2.37;1.73;;;;;;;;;;5111944;27;20446;-71
2021/08/27 13:57:41;;;;;;;2.40;1.27;;;;;;;;;;5120095;27;20469;-71
2021/08/27 14:00:10;;;;;;;2.20;1.60;;;;;;;;;;5130942;27;20461;-71
2021/08/27 14:02:37;;;;;;;2.50;2.10;;;;;;;;;;5125561;27;20532;-71
2021/08/27 14:05:06;;;;;;;2.40;1.50;;;;;;;;;;5129253;27;20514;-70
2021/08/27 14:10:19;;;;;;;3.07;1.33;;;;;;;;;;5110481;27;20494;-71
2021/08/27 14:12:50;;;;;;;2.70;1.90;;;;;;;;;;5124772;27;20437;-71
2021/08/27 14:15:21;;;;;;;2.90;1.47;;;;;;;;;;5125666;27;20585;-71
2021/08/27 14:17:50;;;;;;;2.00;1.40;;;;;;;;;;5130792;27;20461;-72
2021/08/27 14:20:24;;;;;;;4.10;2.03;;;;;;;;;;5131148;27;20766;-71
2021/08/27 14:22:55;;;;;;;2.40;1.80;;;;;;;;;;5110210;27;20533;-71
2021/08/27 14:25:26;;;;;;;2.73;1.93;;;;;;;;;;5111787;27;20471;-70
2021/08/27 14:27:54;;;;;;;2.97;1.27;;;;;;;;;;5111498;27;20434;-71
2021/08/27 14:30:25;;;;;;;2.13;1.63;;;;;;;;;;5110816;27;20457;-71
2021/08/27 14:32:52;;;;;;;2.30;1.63;;;;;;;;;;5112322;27;20538;-71
2021/08/27 14:35:21;;;;;;;3.60;2.37;;;;;;;;;;5133851;27;20453;-71
2021/08/27 14:37:49;;;;;;;2.10;1.33;;;;;;;;;;5113226;27;20447;-71
2021/08/27 14:40:18;;;;;;;4.93;2.00;;;;;;;;;;5116394;27;20505;-70
2021/08/27 14:42:46;;;;;;;2.80;1.57;;;;;;;;;;5112017;27;20475;-70
2021/08/27 14:45:14;;;;;;;2.80;1.67;;;;;;;;;;5117207;27;20482;-71
2021/08/27 14:47:42;;;;;;;2.87;1.87;;;;;;;;;;5117684;27;20455;-70
2021/08/27 14:50:11;;;;;;;3.83;2.77;;;;;;;;;;5119109;27;20844;-70
2021/08/27 14:52:38;;;;;;;2.00;1.17;;;;;;;;;;5113292;27;20464;-70
2021/08/27 14:55:07;;;;;;;1.70;1.10;;;;;;;;;;5113955;27;20444;-70
2021/08/27 14:57:35;;;;;;;2.23;1.63;;;;;;;;;;5109413;27;20454;-71
2021/08/27 15:00:02;;;;;;;3.20;2.33;;;;;;;;;;5116451;27;20468;-70
2021/08/27 15:02:33;;;;;;;3.03;1.70;;;;;;;;;;5103731;27;20571;-71
2021/08/27 15:05:05;;;;;;;4.30;2.37;;;;;;;;;;5109006;27;21052;-71
2021/08/27 15:07:33;;;;;;;3.40;2.27;;;;;;;;;;5107519;27;20458;-70
2021/08/27 15:10:03;;;;;;;3.30;2.23;;;;;;;;;;5103484;28;20881;-70
2021/08/27 15:12:30;;;;;;;7.63;2.60;;;;;;;;;;5117131;27;20459;-71
2021/08/27 15:14:59;;;;;;;5.63;2.43;;;;;;;;;;5102529;28;20448;-70
2021/08/27 15:17:27;;;;;;;2.70;1.40;;;;;;;;;;5115350;27;20461;-70
2021/08/27 15:19:55;;;;;;;2.47;1.17;;;;;;;;;;5116250;27;20542;-70
2021/08/27 15:22:23;;;;;;;4.87;1.60;;;;;;;;;;5122972;27;20504;-70
2021/08/27 15:24:56;;;;;;;2.53;1.17;;;;;;;;;;5116564;27;20893;-71